createdAt,value
2022-12-03T00:01:00.006Z,-1.11
2022-12-03T00:03:30.968Z,-0.92
2022-12-03T00:06:04.413Z,-0.77
2022-12-03T00:08:37.125Z,-0.62
2022-12-03T00:11:07.997Z,-0.56
2022-12-03T00:13:38.603Z,-0.34
2022-12-03T00:16:09.768Z,-0.25
2022-12-03T00:18:40.452Z,-0.12
2022-12-03T00:21:13.670Z,-0.14
2022-12-03T00:23:44.400Z,-0.19
2022-12-03T00:26:15.345Z,-0.30
2022-12-03T00:28:46.061Z,-0.36
2022-12-03T00:31:17.340Z,-0.46
2022-12-03T00:33:47.997Z,-0.59
2022-12-03T00:36:21.902Z,-0.54
2022-12-03T00:38:52.465Z,-0.45
2022-12-03T00:41:23.027Z,-0.48
2022-12-03T00:43:57.631Z,-0.51
2022-12-03T00:46:28.621Z,-0.55
2022-12-03T00:48:59.657Z,-0.69
2022-12-03T00:51:33.207Z,-0.71
2022-12-03T00:54:03.904Z,-0.65
2022-12-03T00:56:34.627Z,-0.64
2022-12-03T00:59:05.350Z,-0.58
2022-12-03T01:01:36.101Z,-0.61
2022-12-03T01:04:07.075Z,-0.63
2022-12-03T01:06:40.290Z,-0.66
2022-12-03T01:09:10.994Z,-0.69
2022-12-03T01:11:42.097Z,-0.71
2022-12-03T01:14:14.577Z,-0.77
2022-12-03T01:16:46.244Z,-0.76
2022-12-03T01:19:18.131Z,-0.74
2022-12-03T01:21:53.492Z,-0.77
2022-12-03T01:24:24.330Z,-0.76
2022-12-03T01:26:56.375Z,-0.82
2022-12-03T01:29:27.084Z,-0.73
2022-12-03T01:32:10.127Z,-0.81
2022-12-03T01:34:40.978Z,-0.77
2022-12-03T01:37:14.727Z,-0.71
2022-12-03T01:39:46.500Z,-0.65
2022-12-03T01:42:20.839Z,-0.57
2022-12-03T01:44:54.080Z,-0.57
2022-12-03T01:47:29.811Z,-0.78
2022-12-03T01:50:03.908Z,-0.64
2022-12-03T01:52:41.874Z,-0.69
2022-12-03T01:55:19.465Z,-0.70
2022-12-03T01:57:53.525Z,-0.74
2022-12-03T02:00:27.303Z,-0.75
2022-12-03T02:03:00.271Z,-0.76
2022-12-03T02:05:33.117Z,-0.77
2022-12-03T02:08:32.730Z,-0.79
2022-12-03T02:11:06.681Z,-0.78
2022-12-03T02:14:02.339Z,-0.69
2022-12-03T02:16:32.997Z,-0.67
2022-12-03T02:19:03.758Z,-0.70
2022-12-03T02:21:41.911Z,-0.70
2022-12-03T02:24:22.846Z,-0.72
2022-12-03T02:26:56.421Z,-0.72
2022-12-03T02:29:29.772Z,-0.78
2022-12-03T02:32:00.506Z,-0.81
2022-12-03T02:34:39.369Z,-0.84
2022-12-03T02:37:14.703Z,-0.85
2022-12-03T02:39:49.577Z,-0.81
2022-12-03T02:42:38.535Z,-0.77
2022-12-03T02:45:14.438Z,-0.85
2022-12-03T02:47:47.628Z,-0.79
2022-12-03T02:50:22.222Z,-0.85
2022-12-03T02:52:54.190Z,-0.85
2022-12-03T02:55:26.307Z,-0.90
2022-12-03T02:58:00.289Z,-1.03
2022-12-03T03:00:31.249Z,-0.92
2022-12-03T03:03:03.820Z,-0.92
2022-12-03T03:05:35.302Z,-0.91
2022-12-03T03:08:06.717Z,-0.94
2022-12-03T03:10:39.354Z,-0.96
2022-12-03T03:13:14.647Z,-0.92
2022-12-03T03:15:46.268Z,-0.99
2022-12-03T03:18:18.766Z,-0.87
2022-12-03T03:20:49.535Z,-0.87
2022-12-03T03:23:23.036Z,-0.92
2022-12-03T03:25:59.593Z,-0.95
2022-12-03T03:28:34.232Z,-0.96
2022-12-03T03:31:07.437Z,-1.00
2022-12-03T03:33:38.602Z,-1.01
2022-12-03T03:36:10.756Z,-1.05
2022-12-03T03:38:42.791Z,-1.07
2022-12-03T03:41:15.531Z,-1.09
2022-12-03T03:43:50.595Z,-1.08
2022-12-03T03:46:22.632Z,-1.03
2022-12-03T03:48:54.767Z,-1.02
2022-12-03T03:51:25.691Z,-1.04
2022-12-03T03:53:56.648Z,-1.05
2022-12-03T03:56:28.351Z,-1.09
2022-12-03T03:59:02.009Z,-1.09
2022-12-03T04:01:33.260Z,-1.11
2022-12-03T04:04:04.103Z,-1.20
2022-12-03T04:06:37.097Z,-1.14
2022-12-03T04:09:07.781Z,-1.16
2022-12-03T04:11:52.532Z,-1.20
2022-12-03T04:14:26.074Z,-1.17
2022-12-03T04:16:57.007Z,-1.17
2022-12-03T04:19:27.748Z,-1.20
2022-12-03T04:22:10.682Z,-1.19
2022-12-03T04:24:41.462Z,-1.17
2022-12-03T04:27:24.506Z,-1.21
2022-12-03T04:29:57.811Z,-1.23
2022-12-03T04:32:41.041Z,-1.19
2022-12-03T04:35:25.571Z,-1.27
2022-12-03T04:37:56.748Z,-1.19
2022-12-03T04:40:39.831Z,-1.11
2022-12-03T04:43:10.776Z,-1.10
2022-12-03T04:45:44.675Z,-1.25
2022-12-03T04:48:15.558Z,-1.14
2022-12-03T04:50:46.492Z,-1.16
2022-12-03T04:53:17.278Z,-1.09
2022-12-03T04:55:48.222Z,-1.05
2022-12-03T04:58:19.166Z,-1.07
2022-12-03T05:00:52.673Z,-1.08
2022-12-03T05:03:23.596Z,-1.19
2022-12-03T05:05:54.207Z,-1.14
2022-12-03T05:08:24.794Z,-1.17
2022-12-03T05:10:55.959Z,-1.17
2022-12-03T05:13:26.796Z,-1.14
2022-12-03T05:16:01.033Z,-1.10
2022-12-03T05:18:32.366Z,-1.20
2022-12-03T05:21:03.175Z,-1.16
2022-12-03T05:23:34.296Z,-1.17
2022-12-03T05:26:05.261Z,-1.19
2022-12-03T05:28:37.800Z,-1.22
2022-12-03T05:31:12.083Z,-1.23
2022-12-03T05:33:44.594Z,-1.24
2022-12-03T05:36:16.056Z,-1.26
2022-12-03T05:38:47.081Z,-1.24
2022-12-03T05:41:30.120Z,-1.26
2022-12-03T05:44:00.638Z,-1.25
2022-12-03T05:46:34.565Z,-1.27
2022-12-03T05:49:05.384Z,-1.42
2022-12-03T05:51:36.149Z,-1.16
2022-12-03T05:54:06.862Z,-1.12
2022-12-03T05:56:37.719Z,-1.02
2022-12-03T05:59:08.636Z,-0.88
2022-12-03T06:01:41.993Z,-0.95
2022-12-03T06:04:12.864Z,-0.84
2022-12-03T06:06:43.636Z,-0.89
2022-12-03T06:09:14.550Z,-0.96
2022-12-03T06:11:45.069Z,-1.13
2022-12-03T06:14:15.847Z,-1.04
2022-12-03T06:16:49.270Z,-1.12
2022-12-03T06:19:20.353Z,-1.09
2022-12-03T06:21:51.206Z,-1.09
2022-12-03T06:24:21.961Z,-1.10
2022-12-03T06:26:52.720Z,-1.11
2022-12-03T06:29:23.635Z,-1.12
2022-12-03T06:31:56.882Z,-1.17
2022-12-03T06:34:27.546Z,-1.13
2022-12-03T06:36:58.361Z,-1.13
2022-12-03T06:39:29.107Z,-1.13
2022-12-03T06:41:59.655Z,-1.12
2022-12-03T06:44:30.341Z,-1.13
2022-12-03T06:47:03.905Z,-1.09
2022-12-03T06:49:34.943Z,-1.14
2022-12-03T06:52:05.971Z,-1.08
2022-12-03T06:54:37.874Z,-1.06
2022-12-03T06:57:08.675Z,-1.13
2022-12-03T06:59:39.522Z,-1.04
2022-12-03T07:02:13.103Z,-1.11
2022-12-03T07:04:52.533Z,-0.91
2022-12-03T07:07:23.080Z,-0.89
2022-12-03T07:09:53.825Z,-0.84
2022-12-03T07:12:24.455Z,-0.83
2022-12-03T07:14:55.627Z,-0.70
2022-12-03T07:17:30.590Z,-0.60
2022-12-03T07:20:01.384Z,-0.48
2022-12-03T07:22:33.679Z,-0.41
2022-12-03T07:25:04.597Z,-0.22
2022-12-03T07:27:35.592Z,-0.14
2022-12-03T07:30:07.418Z,-0.03
2022-12-03T07:32:41.076Z,0.07
2022-12-03T07:35:12.957Z,0.17
2022-12-03T07:37:43.619Z,0.27
2022-12-03T07:40:15.812Z,0.34
2022-12-03T07:42:46.543Z,0.38
2022-12-03T07:45:17.217Z,0.48
2022-12-03T07:47:50.985Z,0.55
2022-12-03T07:50:21.948Z,0.57
2022-12-03T07:52:52.990Z,0.65
2022-12-03T07:55:25.431Z,0.69
2022-12-03T07:57:56.165Z,0.76
2022-12-03T08:00:27.313Z,0.81
2022-12-03T08:03:00.685Z,0.87
2022-12-03T08:05:31.622Z,0.92
2022-12-03T08:08:02.250Z,0.98
2022-12-03T08:10:33.615Z,1.03
2022-12-03T08:13:06.156Z,1.03
2022-12-03T08:15:39.488Z,1.09
2022-12-03T08:18:19.031Z,1.13
2022-12-03T08:20:51.472Z,1.15
2022-12-03T08:23:24.556Z,1.12
2022-12-03T08:26:02.237Z,1.21
2022-12-03T08:28:32.823Z,1.21
2022-12-03T08:31:05.785Z,1.29
2022-12-03T08:33:40.331Z,1.34
2022-12-03T08:36:17.580Z,1.34
2022-12-03T08:38:52.379Z,1.42
2022-12-03T08:41:35.996Z,1.50
2022-12-03T08:44:19.876Z,1.52
2022-12-03T08:46:53.385Z,1.53
2022-12-03T08:49:26.571Z,1.43
2022-12-03T08:52:00.520Z,1.58
2022-12-03T08:54:31.492Z,1.38
2022-12-03T08:57:05.129Z,1.57
2022-12-03T08:59:35.818Z,1.61
2022-12-03T09:02:20.085Z,1.63
2022-12-03T09:04:56.137Z,1.66
2022-12-03T09:07:27.413Z,1.69
2022-12-03T09:09:58.021Z,1.54
2022-12-03T09:12:28.632Z,1.73
2022-12-03T09:14:59.250Z,1.74
2022-12-03T09:17:29.912Z,1.74
2022-12-03T09:20:03.500Z,1.73
2022-12-03T09:22:34.764Z,1.71
2022-12-03T09:25:05.367Z,1.73
2022-12-03T09:27:36.114Z,1.53
2022-12-03T09:30:07.565Z,1.68
2022-12-03T09:32:38.290Z,1.63
2022-12-03T09:35:12.066Z,1.67
2022-12-03T09:37:42.682Z,1.60
2022-12-03T09:40:15.004Z,1.63
2022-12-03T09:42:45.749Z,1.69
2022-12-03T09:45:17.908Z,1.66
2022-12-03T09:47:51.036Z,1.73
2022-12-03T09:50:27.359Z,1.75
2022-12-03T09:53:01.778Z,1.73
2022-12-03T09:55:33.252Z,1.73
2022-12-03T09:58:04.234Z,1.68
2022-12-03T10:00:35.041Z,1.68
2022-12-03T10:03:09.363Z,1.67
2022-12-03T10:05:47.964Z,1.68
2022-12-03T10:08:22.941Z,1.69
2022-12-03T10:10:56.910Z,1.72
2022-12-03T10:13:31.163Z,1.63
2022-12-03T10:16:04.038Z,1.76
2022-12-03T10:18:41.461Z,1.77
2022-12-03T10:21:23.213Z,1.82
2022-12-03T10:24:20.984Z,1.86
2022-12-03T10:26:52.966Z,1.77
2022-12-03T10:29:29.905Z,1.41
2022-12-03T10:32:05.668Z,0.82
2022-12-03T10:34:39.170Z,0.32
2022-12-03T10:37:18.300Z,-0.11
2022-12-03T10:40:00.380Z,-0.49
2022-12-03T10:42:33.210Z,-0.73
2022-12-03T10:45:19.941Z,-0.87
2022-12-03T10:48:07.617Z,-0.95
2022-12-03T10:50:39.333Z,-0.98
2022-12-03T10:53:13.512Z,-1.00
2022-12-03T10:55:46.342Z,-0.95
2022-12-03T10:58:24.023Z,-0.90
2022-12-03T11:00:58.666Z,-0.76
2022-12-03T11:03:31.671Z,-0.64
2022-12-03T11:06:04.533Z,-0.53
2022-12-03T11:09:00.341Z,-0.45
2022-12-03T11:11:34.449Z,-0.43
2022-12-03T11:14:06.725Z,-0.34
2022-12-03T11:17:10.126Z,-0.19
2022-12-03T11:19:52.387Z,-0.01
2022-12-03T11:22:44.232Z,0.22
2022-12-03T11:25:50.799Z,0.42
2022-12-03T11:28:56.896Z,0.57
2022-12-03T11:31:42.257Z,0.60
2022-12-03T11:34:51.693Z,0.58
2022-12-03T11:37:30.085Z,0.54
2022-12-03T11:40:05.709Z,0.44
2022-12-03T11:42:43.182Z,0.37
2022-12-03T11:45:31.504Z,0.39
2022-12-03T11:48:20.048Z,0.48
2022-12-03T11:50:54.975Z,0.47
2022-12-03T11:53:27.900Z,0.46
2022-12-03T11:56:09.442Z,0.48
2022-12-03T11:58:42.904Z,0.43
2022-12-03T12:01:17.901Z,0.32
2022-12-03T12:03:50.083Z,0.45
2022-12-03T12:06:22.606Z,0.53
2022-12-03T12:09:04.186Z,0.53
2022-12-03T12:11:47.777Z,0.49
2022-12-03T12:14:29.174Z,0.39
2022-12-03T12:17:04.094Z,0.40
2022-12-03T12:19:37.740Z,0.35
2022-12-03T12:22:21.080Z,0.34
2022-12-03T12:24:54.378Z,0.24
2022-12-03T12:27:32.652Z,0.23
2022-12-03T12:30:05.342Z,0.41
2022-12-03T12:32:47.446Z,0.49
2022-12-03T12:35:21.364Z,0.63
2022-12-03T12:37:59.484Z,0.73
2022-12-03T12:40:33.726Z,0.82
2022-12-03T12:43:14.240Z,0.93
2022-12-03T12:45:47.318Z,1.00
2022-12-03T12:48:26.266Z,1.08
2022-12-03T12:51:09.733Z,1.15
2022-12-03T12:53:43.035Z,1.21
2022-12-03T12:56:26.114Z,1.29
2022-12-03T12:58:57.390Z,1.33
2022-12-03T13:01:30.556Z,1.39
2022-12-03T13:04:03.851Z,1.43
2022-12-03T13:06:35.218Z,1.46
2022-12-03T13:09:06.153Z,1.51
2022-12-03T13:11:42.560Z,1.52
2022-12-03T13:14:20.150Z,1.52
2022-12-03T13:16:52.182Z,1.54
2022-12-03T13:19:30.298Z,1.46
2022-12-03T13:22:03.926Z,1.56
2022-12-03T13:24:37.160Z,1.57
2022-12-03T13:27:25.934Z,1.58
2022-12-03T13:29:59.135Z,1.61
2022-12-03T13:32:33.960Z,1.48
2022-12-03T13:35:09.728Z,1.63
2022-12-03T13:37:40.655Z,1.48
2022-12-03T13:40:23.346Z,1.67
2022-12-03T13:42:52.989Z,1.68
2022-12-03T13:45:34.182Z,1.71
2022-12-03T13:48:07.343Z,1.68
2022-12-03T13:50:44.746Z,1.67
2022-12-03T13:53:23.560Z,1.70
2022-12-03T13:55:57.556Z,1.69
2022-12-03T13:58:28.790Z,1.73
2022-12-03T14:00:59.472Z,1.70
2022-12-03T14:03:30.146Z,1.77
2022-12-03T14:06:03.430Z,1.78
2022-12-03T14:08:34.214Z,1.73
2022-12-03T14:11:05.816Z,1.80
2022-12-03T14:13:36.984Z,1.75
2022-12-03T14:16:08.463Z,1.75
2022-12-03T14:18:39.491Z,1.74
2022-12-03T14:21:12.703Z,1.71
2022-12-03T14:23:43.290Z,1.70
2022-12-03T14:26:14.119Z,1.67
2022-12-03T14:28:44.741Z,1.66
2022-12-03T14:31:15.999Z,1.66
2022-12-03T14:33:46.961Z,1.64
2022-12-03T14:36:20.397Z,1.59
2022-12-03T14:38:50.965Z,1.64
2022-12-03T14:41:33.885Z,1.65
2022-12-03T14:44:04.722Z,1.67
2022-12-03T14:46:36.907Z,1.69
2022-12-03T14:49:07.935Z,1.71
2022-12-03T14:51:41.335Z,1.68
2022-12-03T14:54:12.254Z,1.68
2022-12-03T14:56:43.120Z,1.70
2022-12-03T14:59:14.050Z,1.70
2022-12-03T15:01:44.891Z,1.68
2022-12-03T15:04:15.949Z,1.67
2022-12-03T15:06:49.411Z,1.65
2022-12-03T15:09:20.635Z,1.64
2022-12-03T15:11:51.656Z,1.64
2022-12-03T15:14:22.241Z,1.64
2022-12-03T15:16:52.990Z,1.66
2022-12-03T15:19:23.658Z,1.58
2022-12-03T15:21:56.884Z,1.68
2022-12-03T15:24:27.565Z,1.68
2022-12-03T15:26:58.146Z,1.69
2022-12-03T15:29:29.024Z,1.64
2022-12-03T15:32:01.325Z,1.64
2022-12-03T15:34:32.028Z,1.66
2022-12-03T15:37:05.412Z,1.66
2022-12-03T15:39:36.591Z,1.61
2022-12-03T15:42:07.453Z,1.66
2022-12-03T15:44:38.070Z,1.60
2022-12-03T15:47:08.841Z,1.67
2022-12-03T15:49:39.598Z,1.69
2022-12-03T15:52:12.981Z,1.56
2022-12-03T15:54:43.810Z,1.67
2022-12-03T15:57:14.818Z,1.70
2022-12-03T15:59:46.240Z,1.66
2022-12-03T16:02:19.017Z,1.63
2022-12-03T16:04:49.820Z,1.61
2022-12-03T16:07:23.314Z,1.58
2022-12-03T16:09:54.065Z,1.57
2022-12-03T16:12:25.055Z,1.60
2022-12-03T16:14:55.681Z,1.58
2022-12-03T16:17:26.487Z,1.59
2022-12-03T16:19:57.407Z,1.59
2022-12-03T16:22:30.924Z,1.64
2022-12-03T16:25:01.572Z,1.66
2022-12-03T16:27:34.010Z,1.66
2022-12-03T16:30:05.144Z,1.64
2022-12-03T16:32:36.099Z,1.64
2022-12-03T16:35:07.786Z,1.56
2022-12-03T16:37:41.393Z,1.60
2022-12-03T16:40:13.264Z,1.54
2022-12-03T16:42:44.087Z,1.56
2022-12-03T16:45:26.897Z,1.57
2022-12-03T16:47:58.249Z,1.55
2022-12-03T16:50:30.123Z,1.60
2022-12-03T16:53:03.873Z,1.53
2022-12-03T16:55:34.852Z,1.59
2022-12-03T16:58:05.542Z,1.62
2022-12-03T17:00:36.539Z,1.62
2022-12-03T17:03:07.400Z,1.61
2022-12-03T17:05:38.887Z,1.57
2022-12-03T17:08:12.343Z,1.59
2022-12-03T17:10:43.188Z,1.59
2022-12-03T17:13:14.148Z,1.55
2022-12-03T17:15:45.089Z,1.62
2022-12-03T17:18:15.852Z,1.62
2022-12-03T17:20:46.489Z,1.65
2022-12-03T17:23:20.029Z,1.66
2022-12-03T17:25:50.534Z,1.68
2022-12-03T17:28:21.171Z,1.66
2022-12-03T17:30:51.950Z,1.65
2022-12-03T17:33:23.020Z,1.63
2022-12-03T17:35:53.678Z,1.60
2022-12-03T17:38:26.955Z,1.59
2022-12-03T17:40:57.632Z,1.52
2022-12-03T17:43:28.492Z,1.59
2022-12-03T17:46:00.326Z,1.59
2022-12-03T17:48:31.534Z,1.58
2022-12-03T17:51:17.993Z,1.59
2022-12-03T17:53:51.342Z,1.59
2022-12-03T17:56:21.954Z,1.59
2022-12-03T17:58:52.596Z,1.44
2022-12-03T18:01:23.260Z,1.55
2022-12-03T18:03:53.962Z,1.58
2022-12-03T18:06:26.594Z,1.50
2022-12-03T18:08:59.802Z,1.54
2022-12-03T18:11:30.546Z,1.53
2022-12-03T18:14:01.763Z,1.52
2022-12-03T18:16:32.979Z,1.37
2022-12-03T18:19:06.432Z,1.54
2022-12-03T18:21:38.145Z,1.48
2022-12-03T18:24:12.298Z,1.50
2022-12-03T18:26:43.581Z,1.49
2022-12-03T18:29:14.259Z,1.55
2022-12-03T18:31:45.008Z,1.50
2022-12-03T18:34:15.986Z,1.49
2022-12-03T18:36:46.799Z,1.50
2022-12-03T18:39:27.210Z,1.49
2022-12-03T18:41:57.990Z,1.26
2022-12-03T18:44:29.237Z,1.54
2022-12-03T18:47:00.341Z,1.55
2022-12-03T18:49:31.104Z,1.55
2022-12-03T18:52:01.839Z,1.56
2022-12-03T18:54:35.183Z,1.47
2022-12-03T18:57:05.840Z,1.56
2022-12-03T18:59:36.392Z,1.53
2022-12-03T19:02:07.999Z,1.52
2022-12-03T19:04:38.931Z,1.50
2022-12-03T19:07:09.854Z,1.51
2022-12-03T19:09:43.185Z,1.51
2022-12-03T19:12:14.817Z,1.51
2022-12-03T19:14:45.621Z,1.46
2022-12-03T19:17:16.278Z,1.54
2022-12-03T19:19:46.992Z,1.52
2022-12-03T19:22:17.807Z,1.55
2022-12-03T19:24:51.151Z,1.54
2022-12-03T19:27:22.417Z,1.52
2022-12-03T19:29:53.265Z,1.49
2022-12-03T19:32:24.229Z,1.49
2022-12-03T19:34:55.012Z,1.47
2022-12-03T19:37:25.707Z,1.47
2022-12-03T19:39:59.043Z,1.47
2022-12-03T19:42:31.435Z,1.48
2022-12-03T19:45:02.114Z,1.48
2022-12-03T19:47:33.719Z,1.49
2022-12-03T19:50:04.404Z,1.51
2022-12-03T19:52:38.271Z,1.51
2022-12-03T19:55:13.527Z,1.51
2022-12-03T19:57:44.229Z,1.30
2022-12-03T20:00:16.421Z,1.49
2022-12-03T20:02:47.316Z,1.43
2022-12-03T20:05:18.066Z,1.46
2022-12-03T20:07:48.811Z,1.46
2022-12-03T20:10:22.190Z,1.45
2022-12-03T20:12:52.829Z,1.48
2022-12-03T20:15:23.543Z,1.48
2022-12-03T20:17:55.524Z,1.49
2022-12-03T20:20:26.473Z,1.49
2022-12-03T20:22:57.161Z,1.52
2022-12-03T20:25:30.587Z,1.53
2022-12-03T20:28:01.300Z,1.49
2022-12-03T20:30:31.977Z,1.54
2022-12-03T20:33:02.557Z,1.55
2022-12-03T20:35:33.680Z,1.56
2022-12-03T20:38:04.583Z,1.57
2022-12-03T20:40:39.569Z,1.56
2022-12-03T20:43:10.431Z,1.44
2022-12-03T20:45:41.248Z,1.54
2022-12-03T20:48:12.522Z,1.54
2022-12-03T20:50:43.588Z,1.52
2022-12-03T20:53:24.709Z,1.52
2022-12-03T20:56:01.798Z,1.41
2022-12-03T20:58:33.300Z,1.24
2022-12-03T21:01:15.570Z,1.42
2022-12-03T21:03:46.613Z,1.46
2022-12-03T21:06:18.345Z,1.44
2022-12-03T21:08:49.560Z,1.37
2022-12-03T21:11:24.766Z,1.46
2022-12-03T21:13:56.866Z,1.46
2022-12-03T21:16:59.226Z,1.34
2022-12-03T21:19:22.178Z,1.45
2022-12-03T21:21:52.949Z,1.41
2022-12-03T21:24:23.785Z,1.42
2022-12-03T21:26:57.352Z,1.45
2022-12-03T21:29:28.354Z,1.45
2022-12-03T21:31:58.966Z,1.40
2022-12-03T21:34:35.862Z,1.46
2022-12-03T21:37:07.738Z,1.47
2022-12-03T21:39:38.889Z,1.45
2022-12-03T21:42:19.324Z,1.49
2022-12-03T21:45:03.088Z,1.48
2022-12-03T21:47:37.170Z,1.50
2022-12-03T21:50:11.309Z,1.47
2022-12-03T21:52:41.851Z,1.43
2022-12-03T21:55:13.073Z,1.25
2022-12-03T21:57:46.290Z,0.81
2022-12-03T22:00:18.188Z,0.24
2022-12-03T22:02:48.959Z,-0.28
2022-12-03T22:05:20.311Z,-0.75
2022-12-03T22:07:51.250Z,-1.20
2022-12-03T22:10:22.130Z,-1.55
2022-12-03T22:12:55.401Z,-1.82
2022-12-03T22:15:26.035Z,-2.03
2022-12-03T22:17:56.717Z,-2.14
2022-12-03T22:20:27.316Z,-2.37
2022-12-03T22:22:57.945Z,-2.31
2022-12-03T22:25:28.611Z,-2.16
2022-12-03T22:28:01.858Z,-1.92
2022-12-03T22:30:32.554Z,-1.60
2022-12-03T22:33:03.165Z,-1.67
2022-12-03T22:35:33.809Z,-1.84
2022-12-03T22:38:04.683Z,-2.00
2022-12-03T22:40:35.337Z,-2.11
2022-12-03T22:43:08.802Z,-2.24
2022-12-03T22:45:39.496Z,-2.20
2022-12-03T22:48:10.329Z,-2.23
2022-12-03T22:50:45.936Z,-2.25
2022-12-03T22:53:17.445Z,-2.27
2022-12-03T22:55:48.152Z,-2.30
2022-12-03T22:58:21.366Z,-2.29
2022-12-03T23:00:51.926Z,-2.08
2022-12-03T23:03:23.007Z,-1.85
2022-12-03T23:05:53.799Z,-1.52
2022-12-03T23:08:25.095Z,-1.64
2022-12-03T23:10:56.409Z,-1.83
2022-12-03T23:13:29.661Z,-2.00
2022-12-03T23:16:00.425Z,-2.07
2022-12-03T23:18:31.305Z,-2.10
2022-12-03T23:21:02.404Z,-2.13
2022-12-03T23:23:33.070Z,-2.07
2022-12-03T23:26:04.788Z,-1.87
2022-12-03T23:28:41.233Z,-1.66
2022-12-03T23:31:19.891Z,-1.42
2022-12-03T23:33:50.939Z,-1.15
2022-12-03T23:36:23.311Z,-1.04
2022-12-03T23:38:54.207Z,-0.75
2022-12-03T23:41:26.903Z,-0.59
2022-12-03T23:44:00.853Z,-0.36
2022-12-03T23:46:32.083Z,-0.31
2022-12-03T23:49:03.145Z,-0.07
2022-12-03T23:51:33.916Z,-0.03
2022-12-03T23:54:04.877Z,0.18
2022-12-03T23:56:35.602Z,0.27
2022-12-03T23:59:09.035Z,0.39
